createdAt,value
2019-03-01T00:02:19.061Z,13.17
2019-03-01T00:05:24.003Z,13.80
2019-03-01T00:08:04.595Z,13.67
2019-03-01T00:10:26.818Z,12.97
2019-03-01T00:13:09.316Z,12.60
2019-03-01T00:15:37.448Z,12.37
2019-03-01T00:18:15.322Z,12.83
2019-03-01T00:20:48.191Z,10.77
2019-03-01T00:23:31.747Z,11.33
2019-03-01T00:26:06.967Z,11.53
2019-03-01T00:28:41.454Z,12.63
2019-03-01T00:31:22.454Z,11.60
2019-03-01T00:34:18.386Z,11.80
2019-03-01T00:36:55.133Z,11.57
2019-03-01T00:39:23.062Z,11.87
2019-03-01T00:42:02.853Z,11.87
2019-03-01T00:44:42.438Z,10.80
2019-03-01T00:46:48.431Z,10.90
2019-03-01T00:49:40.275Z,10.53
2019-03-01T00:51:42.860Z,10.67
2019-03-01T00:57:29.891Z,11.80
2019-03-01T00:59:57.971Z,10.90
2019-03-01T01:02:02.723Z,11.83
2019-03-01T01:04:07.517Z,11.37
2019-03-01T01:06:12.286Z,11.37
2019-03-01T01:08:17.072Z,11.30
2019-03-01T01:10:22.464Z,12.60
2019-03-01T01:12:27.226Z,12.07
2019-03-01T01:14:32.341Z,12.00
2019-03-01T01:16:37.104Z,12.43
2019-03-01T01:18:41.848Z,12.27
2019-03-01T01:20:46.632Z,12.13
2019-03-01T01:22:51.321Z,11.67
2019-03-01T01:24:56.075Z,12.67
2019-03-01T01:27:00.872Z,12.17
2019-03-01T01:29:06.250Z,11.67
2019-03-01T01:31:11.046Z,11.60
2019-03-01T01:33:16.114Z,11.50
2019-03-01T01:35:21.177Z,12.03
2019-03-01T01:37:26.064Z,10.87
2019-03-01T01:39:30.795Z,10.63
2019-03-01T01:41:36.083Z,10.30
2019-03-01T01:43:40.882Z,11.03
2019-03-01T01:45:45.615Z,10.80
2019-03-01T01:47:50.388Z,10.80
2019-03-01T01:49:55.331Z,11.20
2019-03-01T01:52:00.452Z,11.40
2019-03-01T01:54:05.745Z,10.57
2019-03-01T01:56:10.960Z,10.30
2019-03-01T01:58:16.310Z,10.70
2019-03-01T02:00:21.063Z,10.60
2019-03-01T02:02:25.875Z,9.90
2019-03-01T02:04:31.367Z,10.97
2019-03-01T02:06:36.112Z,8.87
2019-03-01T02:08:41.544Z,8.87
2019-03-01T02:10:46.233Z,9.00
2019-03-01T02:12:51.045Z,9.50
2019-03-01T02:14:55.898Z,9.07
2019-03-01T02:17:00.579Z,8.30
2019-03-01T02:19:05.498Z,8.27
2019-03-01T02:21:10.446Z,8.20
2019-03-01T02:23:15.157Z,9.33
2019-03-01T02:25:19.897Z,8.33
2019-03-01T02:27:29.429Z,8.80
2019-03-01T02:29:34.198Z,8.17
2019-03-01T02:31:40.814Z,8.40
2019-03-01T02:33:49.039Z,8.00
2019-03-01T02:35:54.033Z,7.97
2019-03-01T02:37:58.792Z,7.60
2019-03-01T02:40:04.216Z,7.90
2019-03-01T02:42:09.412Z,7.57
2019-03-01T02:44:14.261Z,7.80
2019-03-01T02:46:19.053Z,7.73
2019-03-01T02:48:23.800Z,7.77
2019-03-01T02:50:28.558Z,7.20
2019-03-01T02:52:33.539Z,8.07
2019-03-01T02:54:38.541Z,8.00
2019-03-01T02:56:43.316Z,7.23
2019-03-01T02:58:48.086Z,7.30
2019-03-01T03:00:52.859Z,7.57
2019-03-01T03:02:58.068Z,7.93
2019-03-01T03:05:03.518Z,7.60
2019-03-01T03:07:19.023Z,7.73
2019-03-01T03:09:24.263Z,6.67
2019-03-01T03:11:29.126Z,7.87
2019-03-01T03:13:34.226Z,7.20
2019-03-01T03:15:44.598Z,7.67
2019-03-01T03:17:49.267Z,7.50
2019-03-01T03:19:54.050Z,7.37
2019-03-01T03:21:58.991Z,6.97
2019-03-01T03:24:03.733Z,7.23
2019-03-01T03:26:08.539Z,8.23
2019-03-01T03:28:13.254Z,8.00
2019-03-01T03:30:18.308Z,8.37
2019-03-01T03:32:23.240Z,8.43
2019-03-01T03:34:28.417Z,8.43
2019-03-01T03:36:33.522Z,8.47
2019-03-01T03:38:38.301Z,8.60
2019-03-01T03:40:43.155Z,9.23
2019-03-01T03:42:47.979Z,9.47
2019-03-01T03:44:52.826Z,8.10
2019-03-01T03:46:57.934Z,10.37
2019-03-01T03:49:02.713Z,10.10
2019-03-01T03:51:08.755Z,10.33
2019-03-01T03:53:13.648Z,11.43
2019-03-01T03:55:19.356Z,12.13
2019-03-01T03:57:24.060Z,11.60
2019-03-01T03:59:28.867Z,12.27
2019-03-01T04:01:34.607Z,12.30
2019-03-01T04:03:39.529Z,13.40
2019-03-01T04:05:44.609Z,14.20
2019-03-01T04:07:49.570Z,15.50
2019-03-01T04:09:54.379Z,13.30
2019-03-01T04:12:00.323Z,13.43
2019-03-01T04:14:05.166Z,13.60
2019-03-01T04:16:10.113Z,13.00
2019-03-01T04:18:15.245Z,13.60
2019-03-01T04:20:20.146Z,13.83
2019-03-01T04:22:24.882Z,13.67
2019-03-01T04:24:29.676Z,13.37
2019-03-01T04:26:34.926Z,13.13
2019-03-01T04:28:39.694Z,14.17
2019-03-01T04:30:44.551Z,14.17
2019-03-01T04:32:49.822Z,15.63
2019-03-01T04:34:54.551Z,14.60
2019-03-01T04:37:00.080Z,15.03
2019-03-01T04:39:06.365Z,16.43
2019-03-01T04:41:11.494Z,15.90
2019-03-01T04:43:16.247Z,16.97
2019-03-01T04:45:21.343Z,16.90
2019-03-01T04:47:26.430Z,16.80
2019-03-01T04:49:31.165Z,17.40
2019-03-01T04:51:40.133Z,17.40
2019-03-01T04:53:43.074Z,18.27
2019-03-01T04:55:47.874Z,17.00
2019-03-01T04:57:52.635Z,18.53
2019-03-01T04:59:57.487Z,17.80
2019-03-01T05:02:02.644Z,18.93
2019-03-01T05:04:07.461Z,20.00
2019-03-01T05:06:12.732Z,19.10
2019-03-01T05:08:18.180Z,20.50
2019-03-01T05:10:23.256Z,20.70
2019-03-01T05:12:28.081Z,23.90
2019-03-01T05:14:32.810Z,23.57
2019-03-01T05:16:37.987Z,25.67
2019-03-01T05:18:42.874Z,27.27
2019-03-01T05:20:47.899Z,31.50
2019-03-01T05:22:53.163Z,33.23
2019-03-01T05:24:58.060Z,35.90
2019-03-01T05:27:02.940Z,37.97
2019-03-01T05:29:07.740Z,45.90
2019-03-01T05:31:12.625Z,51.97
2019-03-01T05:33:17.407Z,57.10
2019-03-01T05:35:22.218Z,57.30
2019-03-01T05:37:26.968Z,59.87
2019-03-01T05:39:31.770Z,60.93
2019-03-01T05:41:37.602Z,61.20
2019-03-01T05:43:43.501Z,65.47
2019-03-01T05:45:48.357Z,66.20
2019-03-01T05:47:54.513Z,64.87
2019-03-01T05:49:59.272Z,65.00
2019-03-01T05:52:04.765Z,61.07
2019-03-01T05:54:10.919Z,64.07
2019-03-01T05:56:17.691Z,62.17
2019-03-01T05:58:30.540Z,65.13
2019-03-01T06:00:35.949Z,65.90
2019-03-01T06:03:10.823Z,63.77
2019-03-01T06:05:25.850Z,64.97
2019-03-01T06:08:12.082Z,69.77
2019-03-01T06:10:34.155Z,73.80
2019-03-01T07:28:20.759Z,67.20
2019-03-01T07:40:26.368Z,59.87
2019-03-01T07:43:29.013Z,57.50
2019-03-01T10:45:56.889Z,41.47
2019-03-01T10:49:16.593Z,43.50
2019-03-01T10:52:45.511Z,39.87
2019-03-01T10:59:00.838Z,42.30
2019-03-01T11:01:32.288Z,40.57
2019-03-01T11:04:10.545Z,42.47
2019-03-01T11:10:29.897Z,39.10
2019-03-01T11:17:31.126Z,39.47
2019-03-01T13:52:56.216Z,11.43
2019-03-01T13:55:01.315Z,10.53
2019-03-01T13:57:08.298Z,12.20
2019-03-01T13:59:12.530Z,11.20
2019-03-01T14:01:17.527Z,11.00
2019-03-01T14:03:24.273Z,11.07
2019-03-01T14:05:28.855Z,11.57
2019-03-01T14:07:33.754Z,11.37
2019-03-01T14:21:55.234Z,13.33
2019-03-01T14:24:11.619Z,14.33
2019-03-01T14:26:18.503Z,14.77
2019-03-01T14:46:52.948Z,13.50
2019-03-01T14:48:58.367Z,15.47
2019-03-01T14:51:03.091Z,14.60
2019-03-01T14:53:08.139Z,18.30
2019-03-01T15:01:36.162Z,13.30
2019-03-01T15:07:24.163Z,14.10
2019-03-01T15:09:29.298Z,11.73
2019-03-01T15:11:33.982Z,12.07
2019-03-01T15:13:38.909Z,12.00
2019-03-01T15:15:43.726Z,20.17
2019-03-01T15:17:48.451Z,21.17
2019-03-01T15:19:53.380Z,13.30
2019-03-01T15:21:58.036Z,13.80
2019-03-01T15:24:03.113Z,12.70
2019-03-01T15:26:08.372Z,14.53
2019-03-01T15:28:13.298Z,15.57
2019-03-01T15:30:18.650Z,15.70
2019-03-01T15:32:36.188Z,13.23
2019-03-01T15:34:41.102Z,13.37
2019-03-01T15:36:46.444Z,13.07
2019-03-01T15:38:51.153Z,13.53
2019-03-01T15:40:56.194Z,11.83
2019-03-01T15:43:01.251Z,12.40
2019-03-01T15:45:06.775Z,14.10
2019-03-01T15:47:11.868Z,12.43
2019-03-01T15:49:16.917Z,10.43
2019-03-01T15:51:21.981Z,12.07
2019-03-01T15:53:26.704Z,11.93
2019-03-01T15:55:31.719Z,11.07
2019-03-01T15:57:36.918Z,11.00
2019-03-01T15:59:44.368Z,9.27
2019-03-01T16:01:48.342Z,10.83
2019-03-01T16:03:54.100Z,10.07
2019-03-01T16:05:59.856Z,14.43
2019-03-01T16:08:05.447Z,9.70
2019-03-01T16:10:11.780Z,10.73
2019-03-01T16:12:16.523Z,28.60
2019-03-01T16:14:24.124Z,11.13
2019-03-01T16:16:27.696Z,8.60
2019-03-01T16:18:35.381Z,10.87
2019-03-01T16:20:38.958Z,9.73
2019-03-01T16:22:43.674Z,9.67
2019-03-01T16:24:48.367Z,9.90
2019-03-01T16:26:53.158Z,9.30
2019-03-01T16:28:58.153Z,8.77
2019-03-01T16:31:02.962Z,9.60
2019-03-01T16:33:07.828Z,9.40
2019-03-01T16:35:16.251Z,7.90
2019-03-01T16:37:22.672Z,7.10
2019-03-01T16:39:26.631Z,7.00
2019-03-01T16:41:31.478Z,7.43
2019-03-01T16:43:37.075Z,6.30
2019-03-01T16:45:42.184Z,6.00
2019-03-01T16:47:49.713Z,6.70
2019-03-01T16:49:54.495Z,6.13
2019-03-01T16:51:59.469Z,6.20
2019-03-01T16:54:04.603Z,6.00
2019-03-01T16:56:11.842Z,5.03
2019-03-01T16:58:16.513Z,6.63
2019-03-01T17:00:21.317Z,6.70
2019-03-01T17:02:26.350Z,6.17
2019-03-01T17:04:31.570Z,6.07
2019-03-01T17:06:36.392Z,5.87
2019-03-01T17:08:41.111Z,5.83
2019-03-01T17:10:46.303Z,6.53
2019-03-01T17:12:52.016Z,6.40
2019-03-01T17:14:57.638Z,6.10
2019-03-01T17:17:02.519Z,6.97
2019-03-01T17:19:07.223Z,6.60
2019-03-01T17:21:12.506Z,6.50
2019-03-01T17:23:18.448Z,6.57
2019-03-01T17:25:26.546Z,6.43
2019-03-01T17:27:29.698Z,6.77
2019-03-01T17:29:35.690Z,7.30
2019-03-01T17:31:41.445Z,13.83
2019-03-01T17:33:48.856Z,14.30
2019-03-01T17:35:53.267Z,15.37
2019-03-01T17:37:58.147Z,15.70
2019-03-01T17:40:02.975Z,9.80
2019-03-01T17:42:07.971Z,17.60
2019-03-01T17:44:12.838Z,9.67
2019-03-01T17:46:17.741Z,10.30
2019-03-01T17:48:42.157Z,21.00
2019-03-01T17:50:47.379Z,18.80
2019-03-01T17:52:52.123Z,12.93
2019-03-01T17:54:57.582Z,8.77
2019-03-01T17:57:03.413Z,14.33
2019-03-01T17:59:11.617Z,9.83
2019-03-01T18:01:14.673Z,11.50
2019-03-01T18:03:19.520Z,8.43
2019-03-01T18:05:25.826Z,8.17
2019-03-01T18:07:32.444Z,7.50
2019-03-01T18:09:37.478Z,7.20
2019-03-01T18:11:44.550Z,8.57
2019-03-01T18:13:48.724Z,11.27
2019-03-01T18:15:53.596Z,10.47
2019-03-01T18:18:04.295Z,10.93
2019-03-01T18:20:09.625Z,11.47
2019-03-01T18:22:14.823Z,9.70
2019-03-01T18:24:20.037Z,8.00
2019-03-01T18:26:24.927Z,9.10
2019-03-01T18:28:29.695Z,6.70
2019-03-01T18:30:35.562Z,6.10
2019-03-01T18:32:41.793Z,6.23
2019-03-01T18:34:47.260Z,6.47
2019-03-01T18:36:52.140Z,7.93
2019-03-01T18:38:56.956Z,8.10
2019-03-01T18:41:02.143Z,7.57
2019-03-01T18:43:09.757Z,5.80
2019-03-01T18:45:15.261Z,5.60
2019-03-01T18:47:20.188Z,5.37
2019-03-01T18:49:25.113Z,4.93
2019-03-01T18:51:30.137Z,4.90
2019-03-01T18:53:35.279Z,4.60
2019-03-01T18:55:54.679Z,4.50
2019-03-01T18:57:59.430Z,5.43
2019-03-01T19:00:05.909Z,4.63
2019-03-01T19:02:43.620Z,7.27
2019-03-01T19:04:48.658Z,6.50
2019-03-01T19:06:53.665Z,6.53
2019-03-01T20:54:34.708Z,3.80
2019-03-01T20:56:40.038Z,4.23
2019-03-01T20:58:45.275Z,4.40
2019-03-01T21:00:50.722Z,5.03
2019-03-01T21:02:55.532Z,5.07
2019-03-01T21:05:00.706Z,5.10
2019-03-01T21:07:06.112Z,4.93
2019-03-01T21:09:10.876Z,5.10
2019-03-01T21:11:18.381Z,5.33
2019-03-01T21:13:25.610Z,6.10
2019-03-01T21:15:37.639Z,6.10
2019-03-01T21:17:41.801Z,5.50
2019-03-01T21:22:59.556Z,5.60
2019-03-01T21:28:14.252Z,6.50
2019-03-01T21:45:29.456Z,8.13
2019-03-01T22:24:16.863Z,11.30
2019-03-01T22:26:21.721Z,11.30
2019-03-01T22:28:26.529Z,9.70
2019-03-01T22:30:31.589Z,10.43
2019-03-01T22:32:36.467Z,9.30
2019-03-01T22:34:41.915Z,10.10
2019-03-01T22:36:49.524Z,9.50
2019-03-01T22:38:53.918Z,10.27
2019-03-01T22:41:00.581Z,9.03
2019-03-01T22:43:05.557Z,9.63
2019-03-01T22:45:13.629Z,8.60
2019-03-01T22:47:18.641Z,9.13
2019-03-01T22:49:24.122Z,9.13
2019-03-01T22:51:29.394Z,9.20
2019-03-01T22:53:34.235Z,8.70
2019-03-01T22:55:38.977Z,9.70
2019-03-01T22:57:44.895Z,9.07
2019-03-01T22:59:50.369Z,8.97
2019-03-01T23:01:59.036Z,8.30
2019-03-01T23:04:05.639Z,8.67
2019-03-01T23:06:11.702Z,8.80
2019-03-01T23:08:17.079Z,8.07
2019-03-01T23:10:22.399Z,8.30
2019-03-01T23:12:27.261Z,8.70
2019-03-01T23:14:32.027Z,8.23
2019-03-01T23:16:36.822Z,7.60
2019-03-01T23:18:41.542Z,7.57
2019-03-01T23:20:46.677Z,7.77
2019-03-01T23:22:51.646Z,8.20
2019-03-01T23:24:56.855Z,7.50
2019-03-01T23:27:01.917Z,7.70
2019-03-01T23:29:06.785Z,7.67
2019-03-01T23:31:11.902Z,8.40
2019-03-01T23:33:17.092Z,8.90
2019-03-01T23:35:21.907Z,8.80
2019-03-01T23:37:27.045Z,8.73
2019-03-01T23:39:31.912Z,7.97
2019-03-01T23:41:36.757Z,9.27
2019-03-01T23:43:41.534Z,9.20
2019-03-01T23:45:49.789Z,10.00
2019-03-01T23:47:52.778Z,9.53
2019-03-01T23:49:59.351Z,9.00
2019-03-01T23:52:04.088Z,8.50
2019-03-01T23:54:09.887Z,10.33
2019-03-01T23:56:15.105Z,11.27
2019-03-01T23:58:19.878Z,9.87
